Anna Noli — IZEL — position and weather

sailwx.info

Track history (hours):
 
Tides and Currents Weather Stations Pressure Air Temp Water Temp Dewpoint Dewpoint Depression Visibility Wind Speed Wind Dir Waves Ship Positions

Anna Noli

Last reported at 2016-Apr-30 06:32 UTC. Time now 2016-Apr-30 07:11 UTC.
Position N 44°16' E 008°27'.

Length 31 m.

Type: Towing. MMSI: 247046500.

Date/timePositionNaut miles runAvg speedWind from/ knotsBaromVisibWave heightAir tempDewpointWater temp
2016-Apr-30 06:32N 44°16' E 008°27'0 0.0
2016-Apr-30 05:32N 44°16' E 008°27'1 0.6
2016-Apr-30 04:33N 44°16' E 008°27'1 0.6
2016-Apr-30 03:33N 44°16' E 008°27'0 0.0
2016-Apr-30 02:33N 44°16' E 008°27'0 0.0
2016-Apr-30 01:33N 44°16' E 008°27'0 0.0
2016-Apr-30 00:33N 44°16' E 008°27'0 0.0
2016-Apr-29 23:33N 44°16' E 008°27'0 0.0
2016-Apr-29 22:33N 44°16' E 008°27'0 0.0
2016-Apr-29 21:33N 44°16' E 008°27'0 0.0
2016-Apr-29 20:33N 44°16' E 008°27'0 0.0
2016-Apr-29 19:33N 44°16' E 008°27'0 0.0
2016-Apr-29 18:33N 44°16' E 008°27'4 3.6
2016-Apr-29 17:33N 44°19' E 008°30'4 3.6
2016-Apr-29 16:33N 44°16' E 008°27'0 0.0
2016-Apr-29 15:33N 44°16' E 008°27'0 0.0
2016-Apr-29 14:33N 44°16' E 008°27'0 0.0
2016-Apr-29 13:33N 44°16' E 008°27'0 0.0
2016-Apr-29 12:33N 44°16' E 008°27'0 0.0
2016-Apr-29 11:33N 44°16' E 008°27'0 0.0
2016-Apr-29 10:33N 44°16' E 008°27'0 0.0
2016-Apr-29 09:33N 44°16' E 008°27'1 1.0
2016-Apr-29 08:29N 44°17' E 008°28'1 1.1
2016-Apr-29 07:30N 44°16' E 008°27'0 0.0
2016-Apr-29 06:30N 44°16' E 008°27'0 0.0
2016-Apr-29 05:33N 44°16' E 008°27'0 0.0
2016-Apr-29 04:29N 44°16' E 008°27'0 0.0
2016-Apr-29 03:29N 44°16' E 008°27'0 0.0
2016-Apr-29 02:29N 44°16' E 008°27'0 0.0
2016-Apr-29 01:29N 44°16' E 008°27'0 0.0
2016-Apr-29 00:29N 44°16' E 008°27'0 0.0
2016-Apr-28 23:29N 44°16' E 008°27'0 0.0
2016-Apr-28 22:29N 44°16' E 008°27'0 0.0
2016-Apr-28 21:29N 44°16' E 008°27'0 0.0
2016-Apr-28 20:29N 44°16' E 008°27'0 0.0
2016-Apr-28 19:23N 44°16' E 008°27'0 0.0
2016-Apr-28 18:29N 44°16' E 008°27'0 0.0
2016-Apr-28 17:29N 44°16' E 008°27'0 0.0
2016-Apr-28 16:29N 44°16' E 008°27'0 0.0
2016-Apr-28 15:29N 44°16' E 008°27'0 0.0
2016-Apr-28 14:29N 44°16' E 008°27'0 0.0
2016-Apr-28 13:32N 44°16' E 008°27'0 0.0
2016-Apr-28 12:29N 44°16' E 008°27'0 0.0
2016-Apr-28 11:29N 44°16' E 008°27'0 0.0
2016-Apr-28 10:29N 44°16' E 008°27'0 0.0
2016-Apr-28 09:29N 44°16' E 008°27'0 0.0
2016-Apr-28 08:29N 44°16' E 008°27'0 0.0
2016-Apr-28 07:32N 44°16' E 008°27'1 1.0
2016-Apr-28 06:27N 44°17' E 008°27'0 0.4
2016-Apr-28 05:32N 44°16' E 008°28'2 0.2
2016-Apr-27 15:23N 44°19' E 008°29'3 3.9
2016-Apr-27 14:33N 44°16' E 008°27'0 0.0
2016-Apr-27 12:27N 44°16' E 008°27'1 0.1
2016-Apr-27 04:16N 44°16' E 008°28'1 0.7
2016-Apr-27 03:12N 44°16' E 008°27'0 0.0
2016-Apr-27 01:32N 44°16' E 008°27'0 0.0
2016-Apr-27 00:25N 44°16' E 008°27'0 0.0
2016-Apr-26 23:33N 44°16' E 008°27'0 0.0
2016-Apr-26 22:24N 44°16' E 008°27'0 0.0
2016-Apr-26 21:10N 44°16' E 008°27'0 0.0
2016-Apr-26 19:33N 44°16' E 008°27'0 0.0
2016-Apr-26 18:32N 44°16' E 008°27'0 0.0
2016-Apr-26 17:32N 44°16' E 008°27'0 0.0
2016-Apr-26 16:19N 44°16' E 008°27'0 0.0
2016-Apr-26 15:24N 44°16' E 008°27'0 0.0
2016-Apr-26 14:08N 44°16' E 008°27'0 0.0
2016-Apr-26 12:33N 44°16' E 008°27'0 0.0
2016-Apr-26 11:17N 44°16' E 008°27'1 0.5
2016-Apr-26 09:33N 44°17' E 008°28'0 0.2
2016-Apr-26 08:26N 44°17' E 008°28'1 1.2
2016-Apr-26 07:32N 44°16' E 008°27'0 0.0
2016-Apr-26 06:22N 44°16' E 008°27'0 0.0
2016-Apr-26 05:19N 44°16' E 008°27'0 0.0
2016-Apr-26 04:07N 44°16' E 008°27'0 0.0
2016-Apr-26 03:33N 44°16' E 008°27'0 0.0
2016-Apr-26 02:33N 44°16' E 008°27'0 0.0
2016-Apr-26 01:33N 44°16' E 008°27'0 0.0
2016-Apr-26 00:31N 44°16' E 008°27'0 0.0
2016-Apr-25 23:18N 44°16' E 008°27'0 0.0
2016-Apr-25 22:06N 44°16' E 008°27'0 0.0
2016-Apr-25 21:33N 44°16' E 008°27'0 0.0
2016-Apr-25 20:33N 44°16' E 008°27'0 0.0
2016-Apr-25 19:33N 44°16' E 008°27'0 0.0
2016-Apr-25 18:29N 44°16' E 008°27'0 0.0
2016-Apr-25 17:17N 44°16' E 008°27'0 0.0
2016-Apr-25 16:05N 44°16' E 008°27'0 0.0
2016-Apr-25 14:26N 44°16' E 008°27'0 0.0
2016-Apr-25 13:28N 44°16' E 008°27'0 0.0
2016-Apr-25 12:26N 44°16' E 008°27'0 0.0
2016-Apr-25 11:16N 44°16' E 008°27'0 0.0
2016-Apr-25 10:04N 44°16' E 008°27'0 0.0
2016-Apr-25 09:33N 44°16' E 008°27'0 0.0
2016-Apr-25 08:33N 44°16' E 008°27'0 0.0
2016-Apr-25 07:32N 44°16' E 008°27'1 1.2
2016-Apr-25 06:33N 44°17' E 008°28'0 0.4
2016-Apr-25 05:33N 44°16' E 008°28'1 0.7
2016-Apr-25 04:33N 44°16' E 008°27'0 0.0
2016-Apr-25 02:33N 44°16' E 008°27'0 0.0
2016-Apr-25 01:33N 44°16' E 008°27'0 0.0
2016-Apr-25 00:27N 44°16' E 008°27'0 0.0
2016-Apr-24 23:31N 44°16' E 008°27'0 0.0
2016-Apr-24 22:04N 44°16' E 008°27'0 0.0
2016-Apr-24 21:33N 44°16' E 008°27'0 0.0
2016-Apr-24 20:33N 44°16' E 008°27'0 0.0
2016-Apr-24 19:33N 44°16' E 008°27'0 0.0
2016-Apr-24 18:27N 44°16' E 008°27'0 0.0
2016-Apr-24 17:31N 44°16' E 008°27'0 0.0
2016-Apr-24 16:21N 44°16' E 008°27'0 0.0
2016-Apr-24 15:31N 44°16' E 008°27'0 0.0
2016-Apr-24 14:33N 44°16' E 008°27'0 0.0
2016-Apr-24 13:29N 44°16' E 008°27'0 0.0
2016-Apr-24 12:24N 44°16' E 008°27'0 0.0
2016-Apr-24 11:32N 44°16' E 008°27'0 0.0
2016-Apr-24 10:32N 44°16' E 008°27'0 0.0
2016-Apr-24 09:31N 44°16' E 008°27'0 0.0
2016-Apr-24 08:30N 44°16' E 008°27'0 0.0
2016-Apr-24 07:33N 44°16' E 008°27'0 0.0
2016-Apr-24 06:13N 44°16' E 008°27'0 0.0
2016-Apr-24 05:32N 44°16' E 008°27'0 0.0
2016-Apr-24 04:30N 44°16' E 008°27'0 0.0
2016-Apr-24 03:33N 44°16' E 008°27'0 0.0
2016-Apr-24 02:24N 44°16' E 008°27'0 0.0
2016-Apr-24 01:17N 44°16' E 008°27'0 0.0
2016-Apr-24 00:04N 44°16' E 008°27'0 0.0
2016-Apr-23 23:33N 44°16' E 008°27'0 0.0
2016-Apr-23 22:33N 44°16' E 008°27'0 0.0
2016-Apr-23 21:33N 44°16' E 008°27'0 0.0
2016-Apr-23 20:28N 44°16' E 008°27'0 0.0
2016-Apr-23 19:13N 44°16' E 008°27'0 0.0
2016-Apr-23 17:33N 44°16' E 008°27'0 0.0
2016-Apr-23 16:33N 44°16' E 008°27'0 0.0
2016-Apr-23 15:30N 44°16' E 008°27'0 0.0
2016-Apr-23 14:30N 44°16' E 008°27'0 0.0
2016-Apr-23 13:32N 44°16' E 008°27'0 0.0
2016-Apr-23 12:33N 44°16' E 008°27'0 0.0
2016-Apr-23 11:32N 44°16' E 008°27'0 0.0
2016-Apr-23 10:28N 44°16' E 008°27'0 0.0
2016-Apr-23 09:32N 44°16' E 008°27'0 0.0
2016-Apr-23 08:32N 44°16' E 008°27'0 0.0
2016-Apr-23 07:32N 44°16' E 008°27'0 0.0
2016-Apr-23 06:33N 44°16' E 008°27'0 0.0
2016-Apr-23 05:28N 44°16' E 008°27'0 0.0
2016-Apr-23 04:30N 44°16' E 008°27'0 0.0
2016-Apr-23 01:29N 44°16' E 008°27'0 0.0
2016-Apr-23 00:31N 44°16' E 008°27'0 0.0
2016-Apr-22 23:33N 44°16' E 008°27'0 0.0
2016-Apr-22 22:30N 44°16' E 008°27'0 0.0
2016-Apr-22 21:33N 44°16' E 008°27'0 0.0
2016-Apr-22 20:32N 44°16' E 008°27'3 2.5
2016-Apr-22 19:20N 44°18' E 008°30'1 1.2
2016-Apr-22 18:33N 44°19' E 008°30'4 3.8
2016-Apr-22 17:33N 44°16' E 008°27'0 0.0
2016-Apr-22 16:33N 44°16' E 008°27'4 3.8
2016-Apr-22 15:33N 44°19' E 008°30'0 0.2
2016-Apr-22 14:33N 44°19' E 008°30'0 0.2
2016-Apr-22 13:29N 44°19' E 008°30'4 4.0
2016-Apr-22 12:32N 44°16' E 008°27'0 0.0
2016-Apr-22 11:24N 44°16' E 008°27'0 0.0
2016-Apr-22 10:32N 44°16' E 008°27'0 0.0
2016-Apr-22 09:33N 44°16' E 008°27'0 0.0
2016-Apr-22 08:32N 44°16' E 008°27'0 0.0
2016-Apr-22 07:33N 44°16' E 008°27'0 0.0
2016-Apr-22 03:22N 44°16' E 008°27'0 0.0
2016-Apr-22 02:34N 44°16' E 008°27'0 0.0
2016-Apr-22 01:28N 44°16' E 008°27'0 0.0
2016-Apr-22 00:34N 44°16' E 008°27'0 0.0
2016-Apr-21 22:34N 44°16' E 008°27'0 0.0
2016-Apr-21 21:34N 44°16' E 008°27'0 0.0
2016-Apr-21 17:16N 44°16' E 008°27'0 0.0
2016-Apr-21 16:22N 44°16' E 008°27'0 0.0
2016-Apr-21 15:22N 44°16' E 008°27'0 0.5
2016-Apr-21 14:34N 44°16' E 008°27'  
Track history (hours):
 
Tides and Currents Weather Stations Pressure Air Temp Water Temp Dewpoint Dewpoint Depression Visibility Wind Speed Wind Dir Waves Ship Positions

Anna Noli

Last reported at 2016-Apr-30 06:32 UTC. Time now 2016-Apr-30 07:11 UTC.
Position N 44°16' E 008°27'.

Length 31 m.

Type: Towing. MMSI: 247046500.

Date/timePositionNaut miles runAvg speedWind from/ knotsBaromVisibWave heightAir tempDewpointWater temp
2016-Apr-30 06:32N 44°16' E 008°27'0 0.0
2016-Apr-30 05:32N 44°16' E 008°27'1 0.6
2016-Apr-30 04:33N 44°16' E 008°27'1 0.6
2016-Apr-30 03:33N 44°16' E 008°27'0 0.0
2016-Apr-30 02:33N 44°16' E 008°27'0 0.0
2016-Apr-30 01:33N 44°16' E 008°27'0 0.0
2016-Apr-30 00:33N 44°16' E 008°27'0 0.0
2016-Apr-29 23:33N 44°16' E 008°27'0 0.0
2016-Apr-29 22:33N 44°16' E 008°27'0 0.0
2016-Apr-29 21:33N 44°16' E 008°27'0 0.0
2016-Apr-29 20:33N 44°16' E 008°27'0 0.0
2016-Apr-29 19:33N 44°16' E 008°27'0 0.0
2016-Apr-29 18:33N 44°16' E 008°27'4 3.6
2016-Apr-29 17:33N 44°19' E 008°30'4 3.6
2016-Apr-29 16:33N 44°16' E 008°27'0 0.0
2016-Apr-29 15:33N 44°16' E 008°27'0 0.0
2016-Apr-29 14:33N 44°16' E 008°27'0 0.0
2016-Apr-29 13:33N 44°16' E 008°27'0 0.0
2016-Apr-29 12:33N 44°16' E 008°27'0 0.0
2016-Apr-29 11:33N 44°16' E 008°27'0 0.0
2016-Apr-29 10:33N 44°16' E 008°27'0 0.0
2016-Apr-29 09:33N 44°16' E 008°27'1 1.0
2016-Apr-29 08:29N 44°17' E 008°28'1 1.1
2016-Apr-29 07:30N 44°16' E 008°27'0 0.0
2016-Apr-29 06:30N 44°16' E 008°27'0 0.0
2016-Apr-29 05:33N 44°16' E 008°27'0 0.0
2016-Apr-29 04:29N 44°16' E 008°27'0 0.0
2016-Apr-29 03:29N 44°16' E 008°27'0 0.0
2016-Apr-29 02:29N 44°16' E 008°27'0 0.0
2016-Apr-29 01:29N 44°16' E 008°27'0 0.0
2016-Apr-29 00:29N 44°16' E 008°27'0 0.0
2016-Apr-28 23:29N 44°16' E 008°27'0 0.0
2016-Apr-28 22:29N 44°16' E 008°27'0 0.0
2016-Apr-28 21:29N 44°16' E 008°27'0 0.0
2016-Apr-28 20:29N 44°16' E 008°27'0 0.0
2016-Apr-28 19:23N 44°16' E 008°27'0 0.0
2016-Apr-28 18:29N 44°16' E 008°27'0 0.0
2016-Apr-28 17:29N 44°16' E 008°27'0 0.0
2016-Apr-28 16:29N 44°16' E 008°27'0 0.0
2016-Apr-28 15:29N 44°16' E 008°27'0 0.0
2016-Apr-28 14:29N 44°16' E 008°27'0 0.0
2016-Apr-28 13:32N 44°16' E 008°27'0 0.0
2016-Apr-28 12:29N 44°16' E 008°27'0 0.0
2016-Apr-28 11:29N 44°16' E 008°27'0 0.0
2016-Apr-28 10:29N 44°16' E 008°27'0 0.0
2016-Apr-28 09:29N 44°16' E 008°27'0 0.0
2016-Apr-28 08:29N 44°16' E 008°27'0 0.0
2016-Apr-28 07:32N 44°16' E 008°27'1 1.0
2016-Apr-28 06:27N 44°17' E 008°27'0 0.4
2016-Apr-28 05:32N 44°16' E 008°28'2 0.2
2016-Apr-27 15:23N 44°19' E 008°29'3 3.9
2016-Apr-27 14:33N 44°16' E 008°27'0 0.0
2016-Apr-27 12:27N 44°16' E 008°27'1 0.1
2016-Apr-27 04:16N 44°16' E 008°28'1 0.7
2016-Apr-27 03:12N 44°16' E 008°27'0 0.0
2016-Apr-27 01:32N 44°16' E 008°27'0 0.0
2016-Apr-27 00:25N 44°16' E 008°27'0 0.0
2016-Apr-26 23:33N 44°16' E 008°27'0 0.0
2016-Apr-26 22:24N 44°16' E 008°27'0 0.0
2016-Apr-26 21:10N 44°16' E 008°27'0 0.0
2016-Apr-26 19:33N 44°16' E 008°27'0 0.0
2016-Apr-26 18:32N 44°16' E 008°27'0 0.0
2016-Apr-26 17:32N 44°16' E 008°27'0 0.0
2016-Apr-26 16:19N 44°16' E 008°27'0 0.0
2016-Apr-26 15:24N 44°16' E 008°27'0 0.0
2016-Apr-26 14:08N 44°16' E 008°27'0 0.0
2016-Apr-26 12:33N 44°16' E 008°27'0 0.0
2016-Apr-26 11:17N 44°16' E 008°27'1 0.5
2016-Apr-26 09:33N 44°17' E 008°28'0 0.2
2016-Apr-26 08:26N 44°17' E 008°28'1 1.2
2016-Apr-26 07:32N 44°16' E 008°27'0 0.0
2016-Apr-26 06:22N 44°16' E 008°27'0 0.0
2016-Apr-26 05:19N 44°16' E 008°27'0 0.0
2016-Apr-26 04:07N 44°16' E 008°27'0 0.0
2016-Apr-26 03:33N 44°16' E 008°27'0 0.0
2016-Apr-26 02:33N 44°16' E 008°27'0 0.0
2016-Apr-26 01:33N 44°16' E 008°27'0 0.0
2016-Apr-26 00:31N 44°16' E 008°27'0 0.0
2016-Apr-25 23:18N 44°16' E 008°27'0 0.0
2016-Apr-25 22:06N 44°16' E 008°27'0 0.0
2016-Apr-25 21:33N 44°16' E 008°27'0 0.0
2016-Apr-25 20:33N 44°16' E 008°27'0 0.0
2016-Apr-25 19:33N 44°16' E 008°27'0 0.0
2016-Apr-25 18:29N 44°16' E 008°27'0 0.0
2016-Apr-25 17:17N 44°16' E 008°27'0 0.0
2016-Apr-25 16:05N 44°16' E 008°27'0 0.0
2016-Apr-25 14:26N 44°16' E 008°27'0 0.0
2016-Apr-25 13:28N 44°16' E 008°27'0 0.0
2016-Apr-25 12:26N 44°16' E 008°27'0 0.0
2016-Apr-25 11:16N 44°16' E 008°27'0 0.0
2016-Apr-25 10:04N 44°16' E 008°27'0 0.0
2016-Apr-25 09:33N 44°16' E 008°27'0 0.0
2016-Apr-25 08:33N 44°16' E 008°27'0 0.0
2016-Apr-25 07:32N 44°16' E 008°27'1 1.2
2016-Apr-25 06:33N 44°17' E 008°28'0 0.4
2016-Apr-25 05:33N 44°16' E 008°28'1 0.7
2016-Apr-25 04:33N 44°16' E 008°27'0 0.0
2016-Apr-25 02:33N 44°16' E 008°27'0 0.0
2016-Apr-25 01:33N 44°16' E 008°27'0 0.0
2016-Apr-25 00:27N 44°16' E 008°27'0 0.0
2016-Apr-24 23:31N 44°16' E 008°27'0 0.0
2016-Apr-24 22:04N 44°16' E 008°27'0 0.0
2016-Apr-24 21:33N 44°16' E 008°27'0 0.0
2016-Apr-24 20:33N 44°16' E 008°27'0 0.0
2016-Apr-24 19:33N 44°16' E 008°27'0 0.0
2016-Apr-24 18:27N 44°16' E 008°27'0 0.0
2016-Apr-24 17:31N 44°16' E 008°27'0 0.0
2016-Apr-24 16:21N 44°16' E 008°27'0 0.0
2016-Apr-24 15:31N 44°16' E 008°27'0 0.0
2016-Apr-24 14:33N 44°16' E 008°27'0 0.0
2016-Apr-24 13:29N 44°16' E 008°27'0 0.0
2016-Apr-24 12:24N 44°16' E 008°27'0 0.0
2016-Apr-24 11:32N 44°16' E 008°27'0 0.0
2016-Apr-24 10:32N 44°16' E 008°27'0 0.0
2016-Apr-24 09:31N 44°16' E 008°27'0 0.0
2016-Apr-24 08:30N 44°16' E 008°27'0 0.0
2016-Apr-24 07:33N 44°16' E 008°27'0 0.0
2016-Apr-24 06:13N 44°16' E 008°27'0 0.0
2016-Apr-24 05:32N 44°16' E 008°27'0 0.0
2016-Apr-24 04:30N 44°16' E 008°27'0 0.0
2016-Apr-24 03:33N 44°16' E 008°27'0 0.0
2016-Apr-24 02:24N 44°16' E 008°27'0 0.0
2016-Apr-24 01:17N 44°16' E 008°27'0 0.0
2016-Apr-24 00:04N 44°16' E 008°27'0 0.0
2016-Apr-23 23:33N 44°16' E 008°27'0 0.0
2016-Apr-23 22:33N 44°16' E 008°27'0 0.0
2016-Apr-23 21:33N 44°16' E 008°27'0 0.0
2016-Apr-23 20:28N 44°16' E 008°27'0 0.0
2016-Apr-23 19:13N 44°16' E 008°27'0 0.0
2016-Apr-23 17:33N 44°16' E 008°27'0 0.0
2016-Apr-23 16:33N 44°16' E 008°27'0 0.0
2016-Apr-23 15:30N 44°16' E 008°27'0 0.0
2016-Apr-23 14:30N 44°16' E 008°27'0 0.0
2016-Apr-23 13:32N 44°16' E 008°27'0 0.0
2016-Apr-23 12:33N 44°16' E 008°27'0 0.0
2016-Apr-23 11:32N 44°16' E 008°27'0 0.0
2016-Apr-23 10:28N 44°16' E 008°27'0 0.0
2016-Apr-23 09:32N 44°16' E 008°27'0 0.0
2016-Apr-23 08:32N 44°16' E 008°27'0 0.0
2016-Apr-23 07:32N 44°16' E 008°27'0 0.0
2016-Apr-23 06:33N 44°16' E 008°27'0 0.0
2016-Apr-23 05:28N 44°16' E 008°27'0 0.0
2016-Apr-23 04:30N 44°16' E 008°27'0 0.0
2016-Apr-23 01:29N 44°16' E 008°27'0 0.0
2016-Apr-23 00:31N 44°16' E 008°27'0 0.0
2016-Apr-22 23:33N 44°16' E 008°27'0 0.0
2016-Apr-22 22:30N 44°16' E 008°27'0 0.0
2016-Apr-22 21:33N 44°16' E 008°27'0 0.0
2016-Apr-22 20:32N 44°16' E 008°27'3 2.5
2016-Apr-22 19:20N 44°18' E 008°30'1 1.2
2016-Apr-22 18:33N 44°19' E 008°30'4 3.8
2016-Apr-22 17:33N 44°16' E 008°27'0 0.0
2016-Apr-22 16:33N 44°16' E 008°27'4 3.8
2016-Apr-22 15:33N 44°19' E 008°30'0 0.2
2016-Apr-22 14:33N 44°19' E 008°30'0 0.2
2016-Apr-22 13:29N 44°19' E 008°30'4 4.0
2016-Apr-22 12:32N 44°16' E 008°27'0 0.0
2016-Apr-22 11:24N 44°16' E 008°27'0 0.0
2016-Apr-22 10:32N 44°16' E 008°27'0 0.0
2016-Apr-22 09:33N 44°16' E 008°27'0 0.0
2016-Apr-22 08:32N 44°16' E 008°27'0 0.0
2016-Apr-22 07:33N 44°16' E 008°27'0 0.0
2016-Apr-22 03:22N 44°16' E 008°27'0 0.0
2016-Apr-22 02:34N 44°16' E 008°27'0 0.0
2016-Apr-22 01:28N 44°16' E 008°27'0 0.0
2016-Apr-22 00:34N 44°16' E 008°27'0 0.0
2016-Apr-21 22:34N 44°16' E 008°27'0 0.0
2016-Apr-21 21:34N 44°16' E 008°27'0 0.0
2016-Apr-21 17:16N 44°16' E 008°27'0 0.0
2016-Apr-21 16:22N 44°16' E 008°27'0 0.0
2016-Apr-21 15:22N 44°16' E 008°27'0 0.5
2016-Apr-21 14:34N 44°16' E 008°27'  

Dump ship's entire track history